Time;durP1;ratioP1;P1;durP2;ratioP2;P2;SDS_P1;SDS_P2;PMS_P1;PMS_P2;Temp;Humidity;BMP_temperature;BMP_pressure;BME280_temperature;BME280_humidity;BME280_pressure;Samples;Min_cycle;Max_cycle;Signal;HPM_P1;HPM_P2
2023/03/05 00:01:42;;;;;;;8.00;1.30;;;3.40;99.90;;;;;;5092485;27;20079;-81
2023/03/05 00:04:13;;;;;;;8.05;1.00;;;3.50;99.90;;;;;;5091327;27;20039;-80
2023/03/05 00:06:40;;;;;;;2.55;0.50;;;4.60;99.90;;;;;;5109492;27;20513;-80
2023/03/05 00:09:07;;;;;;;13.43;0.90;;;3.70;99.90;;;;;;5108180;27;20074;-82
2023/03/05 00:11:33;;;;;;;9.15;1.10;;;3.50;99.90;;;;;;5075187;27;20099;-80
2023/03/05 00:14:00;;;;;;;16.35;1.23;;;4.70;99.90;;;;;;5109098;27;20057;-80
2023/03/05 00:16:27;;;;;;;10.27;1.08;;;3.50;99.90;;;;;;5090954;27;20035;-80
2023/03/05 00:18:55;;;;;;;8.27;0.93;;;3.40;99.90;;;;;;5109834;27;20039;-80
2023/03/05 00:21:24;;;;;;;7.70;0.88;;;4.50;99.90;;;;;;5090825;27;20475;-80
2023/03/05 00:23:51;;;;;;;8.90;0.98;;;3.50;99.90;;;;;;5109343;27;20536;-80
2023/03/05 00:26:22;;;;;;;5.35;1.08;;;3.40;99.90;;;;;;5107967;28;20049;-80
2023/03/05 00:28:49;;;;;;;6.88;1.20;;;3.40;99.90;;;;;;5091390;27;20043;-80
2023/03/05 00:31:21;;;;;;;5.65;1.27;;;3.90;99.90;;;;;;5109208;27;20524;-80
2023/03/05 00:33:56;;;;;;;5.15;0.57;;;3.40;99.90;;;;;;5090792;27;20035;-80
2023/03/05 00:36:23;;;;;;;8.25;0.65;;;3.40;99.90;;;;;;5093072;28;20047;-80
2023/03/05 00:38:49;;;;;;;5.13;0.80;;;3.40;99.90;;;;;;5074785;27;20043;-80
2023/03/05 00:41:15;;;;;;;7.05;0.98;;;3.00;99.90;;;;;;5075531;28;20078;-79
2023/03/05 00:43:40;;;;;;;5.97;0.88;;;3.40;99.90;;;;;;5074968;28;20038;-80
2023/03/05 00:46:06;;;;;;;5.70;0.65;;;3.40;99.90;;;;;;5107860;28;20047;-79
2023/03/05 00:48:32;;;;;;;9.90;0.95;;;5.00;99.90;;;;;;5092175;28;20047;-80
2023/03/05 00:50:57;;;;;;;8.90;0.95;;;3.40;99.90;;;;;;5090357;28;20047;-79
2023/03/05 00:53:23;;;;;;;6.88;0.45;;;3.40;99.90;;;;;;5091991;28;20079;-80
2023/03/05 00:55:49;;;;;;;7.32;0.90;;;3.40;99.90;;;;;;5074136;28;20039;-80
2023/03/05 00:58:14;;;;;;;9.30;0.95;;;3.40;99.90;;;;;;5108823;28;20490;-80
2023/03/05 01:00:40;;;;;;;3.83;0.77;;;3.40;99.90;;;;;;5074550;28;20059;-80
2023/03/05 01:03:06;;;;;;;5.32;0.70;;;3.50;99.90;;;;;;5075271;27;20070;-80
2023/03/05 01:05:32;;;;;;;7.45;0.70;;;3.50;99.90;;;;;;5096085;27;20396;-80
2023/03/05 01:07:58;;;;;;;5.20;0.50;;;4.50;99.90;;;;;;5111598;27;20047;-80
2023/03/05 01:10:25;;;;;;;3.50;0.47;;;3.50;99.90;;;;;;5113718;27;20043;-80
2023/03/05 01:12:52;;;;;;;2.85;0.20;;;3.60;99.90;;;;;;5111371;27;20088;-80
2023/03/05 01:15:18;;;;;;;3.95;0.40;;;3.60;99.90;;;;;;5079696;27;20043;-79
2023/03/05 01:17:44;;;;;;;7.22;0.50;;;4.40;99.90;;;;;;5078041;27;20350;-79
2023/03/05 01:20:13;;;;;;;9.32;0.70;;;3.70;99.90;;;;;;5077891;27;20505;-79
2023/03/05 01:22:39;;;;;;;3.25;0.50;;;3.60;99.90;;;;;;5112616;27;20046;-80
2023/03/05 01:25:05;;;;;;;5.03;0.50;;;3.60;99.90;;;;;;5111005;27;20055;-80
2023/03/05 01:27:31;;;;;;;4.97;0.60;;;3.60;99.90;;;;;;5095798;27;20039;-79
2023/03/05 01:29:57;;;;;;;3.10;0.65;;;3.60;99.90;;;;;;5111082;27;20039;-78
2023/03/05 01:32:22;;;;;;;1.90;0.43;;;3.60;99.90;;;;;;5112441;27;20482;-79
2023/03/05 01:34:48;;;;;;;5.18;0.90;;;3.60;99.90;;;;;;5129965;27;20129;-79
2023/03/05 01:37:14;;;;;;;3.47;0.43;;;3.50;99.90;;;;;;5094626;27;20051;-79
2023/03/05 01:39:39;;;;;;;4.53;0.70;;;3.50;99.90;;;;;;5112087;27;20122;-79
2023/03/05 01:42:05;;;;;;;6.85;0.28;;;3.50;99.90;;;;;;5111191;27;20231;-79
2023/03/05 01:44:32;;;;;;;8.18;0.90;;;3.50;99.90;;;;;;5112286;27;20065;-78
2023/03/05 01:46:58;;;;;;;5.28;0.60;;;3.40;99.90;;;;;;5111205;27;20078;-79
2023/03/05 01:49:30;;;;;;;8.43;0.68;;;4.70;99.90;;;;;;5095198;27;20103;-80
2023/03/05 01:51:59;;;;;;;;;;;4.90;99.90;;;;;;5111126;27;20047;-79
2023/03/05 01:54:32;;;;;;;6.15;0.65;;;3.30;99.90;;;;;;5128415;27;19969;-79
2023/03/05 01:57:02;;;;;;;3.60;0.30;;;3.40;99.90;;;;;;5112596;27;20401;-79
2023/03/05 01:59:28;;;;;;;4.93;0.70;;;3.40;99.90;;;;;;5094366;27;20486;-80
2023/03/05 02:01:56;;;;;;;5.75;0.60;;;3.40;99.90;;;;;;5112623;27;20462;-80
2023/03/05 02:04:30;;;;;;;3.90;0.40;;;3.40;99.90;;;;;;5110678;27;20080;-80
2023/03/05 02:06:55;;;;;;;9.32;0.50;;;4.20;99.90;;;;;;5111919;27;20091;-80
2023/03/05 02:09:24;;;;;;;5.10;0.50;;;4.10;99.90;;;;;;5130108;27;20047;-80
2023/03/05 02:11:51;;;;;;;3.70;0.40;;;3.30;99.90;;;;;;5079637;27;20047;-80
2023/03/05 02:14:19;;;;;;;4.40;1.90;;;3.30;99.90;;;;;;5102069;27;20059;-80
2023/03/05 02:16:45;;;;;;;3.47;0.40;;;3.40;99.90;;;;;;5096535;27;20051;-79
2023/03/05 02:19:11;;;;;;;19.08;1.15;;;3.30;99.90;;;;;;5097903;27;20063;-79
2023/03/05 02:21:44;;;;;;;5.03;0.60;;;3.20;99.90;;;;;;5096082;27;20035;-80
2023/03/05 02:24:12;;;;;;;5.20;0.50;;;3.20;99.90;;;;;;5095023;27;20562;-80
2023/03/05 02:26:37;;;;;;;5.35;0.30;;;3.70;99.90;;;;;;5112053;27;20394;-81
2023/03/05 02:29:05;;;;;;;7.07;0.80;;;3.10;99.90;;;;;;5059495;27;20039;-80
2023/03/05 02:31:31;;;;;;;4.53;0.60;;;3.10;99.90;;;;;;5111619;27;20398;-80
2023/03/05 02:33:56;;;;;;;5.63;0.73;;;3.10;99.90;;;;;;5109570;27;20043;-80
2023/03/05 02:36:22;;;;;;;8.95;0.90;;;4.40;99.90;;;;;;5111912;27;20042;-80
2023/03/05 02:38:48;;;;;;;2.88;0.43;;;2.30;99.90;;;;;;5093025;27;20130;-79
2023/03/05 02:41:14;;;;;;;6.43;0.75;;;3.10;99.90;;;;;;5077381;27;20047;-79
2023/03/05 02:43:41;;;;;;;4.63;0.50;;;3.10;99.90;;;;;;5110452;27;20077;-79
2023/03/05 02:46:07;;;;;;;6.68;0.70;;;3.00;99.90;;;;;;5093238;27;20446;-79
2023/03/05 02:48:33;;;;;;;3.30;0.60;;;3.00;99.90;;;;;;5111169;27;20043;-79
2023/03/05 02:50:59;;;;;;;5.47;0.70;;;3.00;99.90;;;;;;5109404;27;20053;-79
2023/03/05 02:53:25;;;;;;;2.97;0.60;;;3.70;99.90;;;;;;5107747;28;20536;-79
2023/03/05 02:55:51;;;;;;;8.38;0.80;;;3.00;99.90;;;;;;5089079;28;20130;-79
2023/03/05 02:58:23;;;;;;;9.40;2.05;;;3.00;99.90;;;;;;5091688;28;20043;-79
2023/03/05 03:00:48;;;;;;;9.50;0.77;;;3.00;99.90;;;;;;5090394;28;20513;-79
2023/03/05 03:03:14;;;;;;;9.90;0.85;;;3.10;99.90;;;;;;5089235;28;20450;-79
2023/03/05 03:05:40;;;;;;;2.17;0.43;;;3.10;99.90;;;;;;5090684;28;20334;-79
2023/03/05 03:08:06;;;;;;;5.97;0.45;;;3.10;99.90;;;;;;5088567;28;20123;-79
2023/03/05 03:10:32;;;;;;;3.22;0.40;;;3.10;99.90;;;;;;5107373;28;20079;-79
2023/03/05 03:12:58;;;;;;;6.95;0.70;;;3.20;99.90;;;;;;5088777;28;20138;-79
2023/03/05 03:15:24;;;;;;;2.35;0.45;;;3.20;99.90;;;;;;5091016;28;20079;-79
2023/03/05 03:17:49;;;;;;;6.20;0.50;;;3.20;99.90;;;;;;5090770;28;20123;-79
2023/03/05 03:20:17;;;;;;;10.18;0.77;;;3.10;99.90;;;;;;5106631;28;20043;-79
2023/03/05 03:22:44;;;;;;;2.20;0.60;;;3.00;99.90;;;;;;5107025;28;20096;-79
2023/03/05 03:25:14;;;;;;;5.93;0.65;;;3.00;99.90;;;;;;5105393;28;20051;-79
2023/03/05 03:27:39;;;;;;;3.20;0.47;;;2.90;99.90;;;;;;5089611;28;20035;-79
2023/03/05 03:30:05;;;;;;;3.03;0.43;;;3.50;99.90;;;;;;5107029;28;20203;-80
2023/03/05 03:32:32;;;;;;;3.45;0.52;;;2.80;99.90;;;;;;5106575;28;20466;-79
2023/03/05 03:34:58;;;;;;;5.30;0.63;;;2.80;99.90;;;;;;5106122;28;20550;-80
2023/03/05 03:37:23;;;;;;;7.90;1.15;;;2.80;99.90;;;;;;5106888;28;20135;-79
2023/03/05 03:39:49;;;;;;;2.78;0.30;;;2.70;99.90;;;;;;5090026;28;20052;-79
2023/03/05 03:42:20;;;;;;;3.00;1.02;;;3.80;99.90;;;;;;5105162;28;20422;-79
2023/03/05 03:44:46;;;;;;;2.83;0.70;;;2.70;99.90;;;;;;5108173;28;20043;-79
2023/03/05 03:47:12;;;;;;;7.47;0.70;;;2.80;99.90;;;;;;5087832;28;20044;-80
2023/03/05 03:49:38;;;;;;;11.00;0.93;;;3.70;99.90;;;;;;5106872;28;20054;-79
2023/03/05 03:52:04;;;;;;;3.33;0.40;;;2.80;99.90;;;;;;5107736;27;20043;-79
2023/03/05 03:54:30;;;;;;;5.88;0.50;;;2.80;99.90;;;;;;5108649;27;20190;-80
2023/03/05 03:56:56;;;;;;;8.55;2.03;;;3.80;99.90;;;;;;5128580;27;20157;-80
2023/03/05 03:59:22;;;;;;;1.52;0.30;;;4.40;99.90;;;;;;5108059;27;20066;-80
2023/03/05 04:01:47;;;;;;;4.88;0.75;;;2.80;99.90;;;;;;5109826;27;20054;-79
2023/03/05 04:04:14;;;;;;;4.50;0.98;;;2.80;99.90;;;;;;5108269;27;20390;-80
2023/03/05 04:06:40;;;;;;;2.92;0.50;;;3.50;99.90;;;;;;5109254;27;20043;-80
2023/03/05 04:09:07;;;;;;;6.80;1.05;;;2.80;99.90;;;;;;5109204;27;20371;-80
2023/03/05 04:11:36;;;;;;;6.97;2.55;;;2.80;99.90;;;;;;5091814;27;20047;-79
2023/03/05 04:14:03;;;;;;;5.88;0.52;;;2.70;99.90;;;;;;5109321;27;20077;-80
2023/03/05 04:16:29;;;;;;;3.65;0.57;;;4.00;99.90;;;;;;5090995;27;20035;-80
2023/03/05 04:18:55;;;;;;;6.40;0.40;;;4.00;99.90;;;;;;5109227;27;20573;-79
2023/03/05 04:21:21;;;;;;;7.32;0.50;;;2.70;99.90;;;;;;5090597;27;20087;-80
2023/03/05 04:23:46;;;;;;;4.43;0.52;;;2.70;99.90;;;;;;5109429;28;20039;-79
2023/03/05 04:26:12;;;;;;;3.15;0.60;;;2.70;99.90;;;;;;5108238;27;20501;-79
2023/03/05 04:28:38;;;;;;;5.75;0.50;;;2.70;99.90;;;;;;5074842;28;20046;-79
2023/03/05 04:31:04;;;;;;;3.75;0.57;;;2.60;99.90;;;;;;5109108;27;20042;-79
2023/03/05 04:33:30;;;;;;;7.57;1.50;;;2.60;99.90;;;;;;5108085;27;20062;-79
2023/03/05 04:35:56;;;;;;;2.63;0.43;;;3.30;99.90;;;;;;5092575;28;20043;-79
2023/03/05 04:38:22;;;;;;;5.05;0.80;;;2.70;99.90;;;;;;5090719;27;20050;-79
2023/03/05 04:40:47;;;;;;;4.07;0.82;;;2.70;99.90;;;;;;5092323;28;20058;-79
2023/03/05 04:43:13;;;;;;;5.95;0.70;;;2.70;99.90;;;;;;5091526;28;20070;-79
2023/03/05 04:45:43;;;;;;;6.80;0.52;;;2.80;99.90;;;;;;5074471;28;20078;-79
2023/03/05 04:48:10;;;;;;;11.45;0.73;;;3.20;99.90;;;;;;5092093;28;20410;-79
2023/03/05 04:50:36;;;;;;;6.88;0.90;;;2.70;99.90;;;;;;5089992;28;20043;-79
2023/03/05 04:53:03;;;;;;;6.65;0.77;;;3.10;99.90;;;;;;5091803;28;20059;-79
2023/03/05 04:55:28;;;;;;;3.33;0.52;;;2.20;99.90;;;;;;5090334;28;20028;-79
2023/03/05 04:57:54;;;;;;;14.32;2.25;;;4.00;99.90;;;;;;5075190;28;20049;-79
2023/03/05 05:00:20;;;;;;;6.68;0.70;;;2.80;99.90;;;;;;5074060;28;20102;-79
2023/03/05 05:02:50;;;;;;;8.32;0.77;;;2.80;99.90;;;;;;5091376;28;20078;-79
2023/03/05 05:05:22;;;;;;;7.13;1.48;;;2.80;99.90;;;;;;5108915;28;20478;-79
2023/03/05 05:07:49;;;;;;;3.95;0.55;;;4.20;99.90;;;;;;5107273;28;20054;-79
2023/03/05 05:10:15;;;;;;;3.70;0.40;;;2.80;99.90;;;;;;5108666;28;20044;-79
2023/03/05 05:12:41;;;;;;;3.80;0.85;;;2.90;99.90;;;;;;5090092;28;20039;-79
2023/03/05 05:15:08;;;;;;;5.35;0.55;;;2.90;99.90;;;;;;5091656;28;20047;-78
2023/03/05 05:17:34;;;;;;;2.55;0.40;;;2.90;99.90;;;;;;5090563;28;20091;-79
2023/03/05 05:20:01;;;;;;;3.45;0.50;;;2.90;99.90;;;;;;5074062;28;20047;-79
2023/03/05 05:22:28;;;;;;;8.50;1.13;;;2.90;99.90;;;;;;5091609;28;20054;-79
2023/03/05 05:24:54;;;;;;;4.05;0.50;;;2.90;99.90;;;;;;5090515;28;20039;-78
2023/03/05 05:27:20;;;;;;;2.13;0.35;;;2.90;99.90;;;;;;5109785;28;20115;-79
2023/03/05 05:29:49;;;;;;;6.00;1.85;;;2.80;99.90;;;;;;5106978;28;20050;-80
2023/03/05 05:32:19;;;;;;;4.78;0.88;;;2.80;99.90;;;;;;5108620;28;20054;-79
2023/03/05 05:34:44;;;;;;;1.27;0.50;;;2.80;99.90;;;;;;5108118;28;20043;-80
2023/03/05 05:37:11;;;;;;;4.63;0.55;;;3.00;99.90;;;;;;5126278;28;20130;-80
2023/03/05 05:39:37;;;;;;;5.88;0.50;;;2.00;99.90;;;;;;5092128;28;20071;-80
2023/03/05 05:42:03;;;;;;;4.25;0.50;;;2.70;99.90;;;;;;5109301;28;20062;-80
2023/03/05 05:44:29;;;;;;;4.82;0.35;;;2.60;99.90;;;;;;5115671;28;20487;-80
2023/03/05 05:46:54;;;;;;;3.13;0.30;;;3.00;99.90;;;;;;5115098;28;20050;-79
2023/03/05 05:49:20;;;;;;;2.60;0.77;;;2.50;99.90;;;;;;5114822;27;20035;-79
2023/03/05 05:51:46;;;;;;;2.22;0.40;;;2.50;99.90;;;;;;5113569;27;20046;-79
2023/03/05 05:54:13;;;;;;;0.90;0.47;;;3.70;99.90;;;;;;5130599;27;20051;-79
2023/03/05 05:56:39;;;;;;;3.78;0.40;;;2.40;99.90;;;;;;5112106;27;20045;-79
2023/03/05 05:59:04;;;;;;;6.95;0.65;;;2.40;99.90;;;;;;5110769;27;20047;-79
2023/03/05 06:01:32;;;;;;;6.28;0.65;;;2.30;99.90;;;;;;5112334;27;20123;-80
2023/03/05 06:03:58;;;;;;;4.53;0.60;;;2.30;99.90;;;;;;5128800;27;20570;-79
2023/03/05 06:06:25;;;;;;;3.28;0.70;;;2.20;99.90;;;;;;5111911;27;20131;-80
2023/03/05 06:08:51;;;;;;;4.07;0.50;;;2.20;99.90;;;;;;5129369;27;20035;-79
2023/03/05 06:11:18;;;;;;;4.20;0.70;;;2.20;99.90;;;;;;5129907;27;20050;-80
2023/03/05 06:13:44;;;;;;;5.68;0.75;;;3.50;99.90;;;;;;5130089;27;20031;-79
2023/03/05 06:16:16;;;;;;;6.70;0.75;;;2.20;99.90;;;;;;5129006;27;20057;-79
2023/03/05 06:18:42;;;;;;;7.75;0.52;;;2.20;99.90;;;;;;5130718;27;20074;-79
2023/03/05 06:21:13;;;;;;;5.82;0.43;;;2.20;99.90;;;;;;5109730;27;20089;-79
2023/03/05 06:23:40;;;;;;;5.18;0.63;;;2.20;99.90;;;;;;5129949;27;20051;-79
2023/03/05 06:26:07;;;;;;;6.18;0.73;;;2.20;99.90;;;;;;5110542;27;20100;-79
2023/03/05 06:28:34;;;;;;;6.88;0.88;;;2.20;99.90;;;;;;5110445;27;20039;-79
2023/03/05 06:31:12;;;;;;;5.78;0.93;;;2.40;99.90;;;;;;5111082;27;20068;-79
2023/03/05 06:33:38;;;;;;;5.60;0.90;;;2.40;99.90;;;;;;5128508;27;20054;-79
2023/03/05 06:36:06;;;;;;;4.10;0.57;;;2.90;99.90;;;;;;5111242;27;20039;-80
2023/03/05 06:38:32;;;;;;;8.98;0.93;;;2.40;99.90;;;;;;5128016;27;20039;-78
2023/03/05 06:41:04;;;;;;;6.28;0.82;;;3.80;99.90;;;;;;5129919;27;20081;-78
2023/03/05 06:43:32;;;;;;;5.27;1.13;;;2.40;99.90;;;;;;5093944;27;20038;-78
2023/03/05 06:46:22;;;;;;;8.43;1.40;;;2.50;99.90;;;;;;5092972;27;20054;-78
2023/03/05 06:48:48;;;;;;;19.80;1.23;;;2.50;99.90;;;;;;5130309;27;20069;-79
2023/03/05 06:51:20;;;;;;;4.18;0.85;;;2.50;99.90;;;;;;5109569;27;20058;-79
2023/03/05 06:53:47;;;;;;;2.42;0.52;;;2.60;99.90;;;;;;5128964;27;20043;-78
2023/03/05 06:56:15;;;;;;;4.18;0.73;;;2.60;99.90;;;;;;5076884;27;20110;-78
2023/03/05 06:58:41;;;;;;;8.00;0.90;;;2.70;99.90;;;;;;5109981;27;20050;-78
2023/03/05 07:01:07;;;;;;;9.55;1.45;;;2.70;99.90;;;;;;5110068;27;20050;-78
2023/03/05 07:03:34;;;;;;;9.07;2.22;;;3.40;99.90;;;;;;5092324;27;20051;-78
2023/03/05 07:06:05;;;;;;;7.55;1.02;;;2.80;99.90;;;;;;5093653;27;20071;-78
2023/03/05 07:08:32;;;;;;;6.55;1.17;;;2.80;99.90;;;;;;5109417;27;20053;-79
2023/03/05 07:10:59;;;;;;;6.47;0.65;;;2.90;99.90;;;;;;5093335;27;20039;-78
2023/03/05 07:13:25;;;;;;;8.20;0.90;;;2.90;99.90;;;;;;5109815;27;20057;-79
2023/03/05 07:15:51;;;;;;;2.33;0.50;;;3.00;99.90;;;;;;5109695;27;20031;-79
2023/03/05 07:18:17;;;;;;;2.03;0.45;;;3.00;99.90;;;;;;5110508;27;20043;-79
2023/03/05 07:20:42;;;;;;;4.63;0.60;;;3.00;99.90;;;;;;5091538;27;20141;-79
2023/03/05 07:23:08;;;;;;;6.10;1.05;;;4.60;99.90;;;;;;5110412;27;20501;-79
2023/03/05 07:25:37;;;;;;;2.55;0.80;;;3.10;99.90;;;;;;5075178;27;20445;-79
2023/03/05 07:28:05;;;;;;;6.35;0.40;;;4.40;99.90;;;;;;5093237;27;20075;-79
2023/03/05 07:30:31;;;;;;;5.30;0.70;;;3.90;99.90;;;;;;5110549;27;20046;-83
2023/03/05 07:32:57;;;;;;;6.93;0.93;;;3.30;99.90;;;;;;5111121;27;20129;-82
2023/03/05 07:35:23;;;;;;;5.47;0.70;;;3.30;99.90;;;;;;5113082;27;20074;-82
2023/03/05 07:37:50;;;;;;;5.38;0.80;;;3.40;99.90;;;;;;5108473;27;20077;-79
2023/03/05 07:40:16;;;;;;;7.35;0.73;;;4.60;99.90;;;;;;5093493;27;20410;-78
2023/03/05 07:42:41;;;;;;;6.70;0.60;;;3.50;99.90;;;;;;5091338;27;20043;-79
2023/03/05 07:45:08;;;;;;;4.70;0.40;;;3.50;99.90;;;;;;5109553;27;20474;-79
2023/03/05 07:47:34;;;;;;;6.97;1.42;;;3.60;99.90;;;;;;5109073;27;20039;-78
2023/03/05 07:50:00;;;;;;;5.55;0.82;;;3.60;99.90;;;;;;5091842;27;20047;-79
2023/03/05 07:52:26;;;;;;;4.10;0.40;;;3.70;99.90;;;;;;5109300;27;20065;-82
2023/03/05 07:54:55;;;;;;;7.68;0.90;;;4.80;99.90;;;;;;5108221;27;20055;-81
2023/03/05 07:57:21;;;;;;;7.03;1.05;;;3.90;99.90;;;;;;5076138;27;20043;-80
2023/03/05 07:59:46;;;;;;;6.88;0.70;;;4.00;99.90;;;;;;5108442;27;20054;-79
2023/03/05 08:02:13;;;;;;;3.08;0.70;;;4.00;99.90;;;;;;5109178;27;20043;-80
2023/03/05 08:04:39;;;;;;;7.72;1.52;;;4.10;99.90;;;;;;5091562;27;20042;-80
2023/03/05 08:07:05;;;;;;;6.45;0.80;;;4.20;99.90;;;;;;5058596;27;20058;-79
2023/03/05 08:09:31;;;;;;;7.43;1.00;;;4.30;99.90;;;;;;5092566;27;20039;-80
2023/03/05 08:11:56;;;;;;;5.25;0.82;;;4.60;99.90;;;;;;5090685;27;20047;-81
2023/03/05 08:14:22;;;;;;;6.00;0.77;;;4.50;99.90;;;;;;5092524;27;20150;-81
2023/03/05 08:16:51;;;;;;;5.93;0.65;;;5.20;99.90;;;;;;5074682;28;20039;-81
2023/03/05 08:19:18;;;;;;;2.40;0.68;;;4.70;99.90;;;;;;5109684;27;20417;-80
2023/03/05 08:21:44;;;;;;;8.52;1.00;;;4.60;99.90;;;;;;5074710;28;20085;-81
2023/03/05 08:24:11;;;;;;;6.25;0.77;;;6.00;99.90;;;;;;5108581;27;20054;-81
2023/03/05 08:26:38;;;;;;;4.95;0.73;;;4.80;99.90;;;;;;5109372;27;20129;-82
2023/03/05 08:29:05;;;;;;;3.55;0.50;;;4.90;99.90;;;;;;5090860;27;20543;-79
2023/03/05 08:31:31;;;;;;;6.78;0.73;;;4.90;99.90;;;;;;5109321;28;20122;-80
2023/03/05 08:33:58;;;;;;;11.48;0.68;;;5.10;99.90;;;;;;5107655;27;20047;-81
2023/03/05 08:36:24;;;;;;;5.78;0.90;;;5.20;99.90;;;;;;5109304;27;20039;-81
2023/03/05 08:38:50;;;;;;;10.43;1.13;;;5.40;99.90;;;;;;5108399;27;20058;-81
2023/03/05 08:41:17;;;;;;;8.77;0.73;;;5.50;99.90;;;;;;5108054;27;20406;-81
2023/03/05 08:43:43;;;;;;;9.25;2.63;;;6.60;99.90;;;;;;5108904;28;20039;-81
2023/03/05 08:46:13;;;;;;;8.35;0.98;;;6.10;99.90;;;;;;5090438;28;20073;-80
2023/03/05 08:48:39;;;;;;;4.85;0.52;;;5.70;99.90;;;;;;5091732;28;20046;-80
2023/03/05 08:51:32;;;;;;;5.20;1.40;;;5.70;99.90;;;;;;5090435;28;20047;-79
2023/03/05 08:53:58;;;;;;;5.68;0.52;;;5.70;99.90;;;;;;5118686;28;20105;-81
2023/03/05 08:56:27;;;;;;;13.23;0.63;;;5.60;99.90;;;;;;5105417;28;20043;-80
2023/03/05 08:58:54;;;;;;;13.75;0.80;;;5.60;99.90;;;;;;5087256;28;20039;-82
2023/03/05 09:01:21;;;;;;;7.35;1.05;;;5.70;99.90;;;;;;5088680;28;20044;-81
2023/03/05 09:03:47;;;;;;;5.32;0.65;;;5.70;99.90;;;;;;5087228;28;20048;-81
2023/03/05 09:06:13;;;;;;;4.97;0.75;;;5.80;99.90;;;;;;5105556;28;20087;-80
2023/03/05 09:08:39;;;;;;;5.82;0.40;;;6.30;99.90;;;;;;5087115;28;20462;-80
2023/03/05 09:11:06;;;;;;;3.53;0.52;;;5.70;99.90;;;;;;5087929;28;20040;-80
2023/03/05 09:13:32;;;;;;;4.25;0.60;;;6.70;99.90;;;;;;5106412;28;20039;-79
2023/03/05 09:16:00;;;;;;;5.30;0.60;;;6.60;99.90;;;;;;5071680;28;20067;-80
2023/03/05 09:18:26;;;;;;;3.03;0.30;;;5.50;99.90;;;;;;5108070;28;20044;-80
2023/03/05 09:20:53;;;;;;;1.75;0.20;;;5.50;99.90;;;;;;5076293;28;20554;-80
2023/03/05 09:23:19;;;;;;;0.32;0.20;;;6.50;99.90;;;;;;5077172;28;20047;-80
2023/03/05 09:25:44;;;;;;;0.82;0.30;;;5.40;99.90;;;;;;5061628;28;20047;-80
2023/03/05 09:28:10;;;;;;;4.82;0.20;;;5.50;99.90;;;;;;5094151;28;20495;-81
2023/03/05 09:30:36;;;;;;;2.90;0.32;;;5.60;99.90;;;;;;5092743;28;20050;-81
2023/03/05 09:33:02;;;;;;;2.38;0.30;;;5.80;99.90;;;;;;5090568;28;20048;-81
2023/03/05 09:35:28;;;;;;;3.63;0.30;;;6.10;99.90;;;;;;5109290;28;20453;-80
2023/03/05 09:37:54;;;;;;;5.05;1.17;;;6.30;99.90;;;;;;5073552;28;20032;-82
2023/03/05 09:40:21;;;;;;;4.47;1.00;;;6.30;99.90;;;;;;5075838;28;20039;-81
2023/03/05 09:43:00;;;;;;;5.43;0.40;;;6.40;99.90;;;;;;5091686;28;20043;-81
2023/03/05 09:45:27;;;;;;;3.83;0.50;;;6.60;99.90;;;;;;5091518;28;20486;-85
2023/03/05 09:48:04;;;;;;;7.90;0.88;;;6.70;99.90;;;;;;5108289;28;20071;-84
2023/03/05 09:50:43;;;;;;;3.53;0.40;;;6.80;99.90;;;;;;5090354;28;20043;-81
2023/03/05 09:53:15;;;;;;;2.92;0.47;;;8.30;99.90;;;;;;5108280;28;20055;-81
2023/03/05 09:55:53;;;;;;;4.32;1.05;;;7.40;99.90;;;;;;5107166;28;20047;-82
2023/03/05 09:58:34;;;;;;;3.78;0.43;;;8.30;99.90;;;;;;5090936;28;20039;-81
2023/03/05 10:01:09;;;;;;;5.20;0.45;;;7.40;99.90;;;;;;5108474;28;20051;-82
2023/03/05 10:03:48;;;;;;;9.68;1.08;;;7.40;99.90;;;;;;5106856;28;20105;-82
2023/03/05 10:06:35;;;;;;;8.35;0.65;;;8.00;99.90;;;;;;5108486;28;20044;-82
2023/03/05 10:09:10;;;;;;;6.43;0.65;;;7.50;99.90;;;;;;5108237;28;20040;-83
2023/03/05 10:11:46;;;;;;;9.02;0.73;;;7.30;99.90;;;;;;5106298;28;20117;-82
2023/03/05 10:14:17;;;;;;;5.13;1.40;;;7.50;99.90;;;;;;5108124;28;20616;-82
2023/03/05 10:17:07;;;;;;;7.43;0.50;;;6.90;99.90;;;;;;5107061;28;20043;-84
2023/03/05 10:19:40;;;;;;;11.32;1.33;;;6.80;99.90;;;;;;5090858;28;20040;-81
2023/03/05 10:22:12;;;;;;;3.03;0.63;;;6.90;99.90;;;;;;5090942;28;20032;-82
2023/03/05 10:25:05;;;;;;;24.63;2.10;;;6.90;99.90;;;;;;5089399;28;20089;-81
2023/03/05 10:27:51;;;;;;;6.60;2.45;;;6.90;99.90;;;;;;5085635;28;20058;-83
2023/03/05 10:30:30;;;;;;;8.05;0.85;;;6.80;99.90;;;;;;5090128;28;20083;-81
2023/03/05 10:33:22;;;;;;;5.20;0.50;;;7.00;99.90;;;;;;5106261;28;20559;-83
2023/03/05 10:36:06;;;;;;;4.95;0.40;;;6.90;99.90;;;;;;5108255;28;20459;-82
2023/03/05 10:38:47;;;;;;;5.78;0.68;;;6.90;99.90;;;;;;5089435;28;20063;-82
2023/03/05 10:41:52;;;;;;;3.63;0.32;;;7.00;99.90;;;;;;5107507;28;20047;-91
2023/03/05 10:44:30;;;;;;;4.20;0.65;;;7.10;99.90;;;;;;5107199;28;20051;-81
2023/03/05 10:46:57;;;;;;;2.97;0.40;;;7.30;99.90;;;;;;5106487;28;20474;-82
2023/03/05 10:49:33;;;;;;;4.80;0.60;;;7.40;99.90;;;;;;5090351;28;20051;-82
2023/03/05 10:52:14;;;;;;;8.35;0.47;;;8.30;99.90;;;;;;5089998;28;20588;-82
2023/03/05 10:54:42;;;;;;;5.55;0.65;;;7.30;99.90;;;;;;5105930;28;20056;-83
2023/03/05 10:57:18;;;;;;;4.85;0.50;;;7.30;99.90;;;;;;5107706;28;20155;-83
2023/03/05 10:59:52;;;;;;;4.57;0.95;;;7.50;99.90;;;;;;5106538;28;20903;-84
2023/03/05 11:02:21;;;;;;;2.72;0.30;;;7.70;99.90;;;;;;5090772;28;20058;-82
2023/03/05 11:04:48;;;;;;;3.35;0.50;;;8.00;99.90;;;;;;5090386;28;20399;-82
2023/03/05 11:07:14;;;;;;;4.32;0.65;;;8.40;99.90;;;;;;5072304;28;20047;-82
2023/03/05 11:10:00;;;;;;;3.85;0.55;;;8.40;99.90;;;;;;5107352;28;20039;-82
2023/03/05 11:12:37;;;;;;;3.17;0.55;;;8.50;99.90;;;;;;5074487;28;20054;-82
2023/03/05 11:15:26;;;;;;;3.67;1.27;;;8.50;99.90;;;;;;5089883;28;20047;-82
2023/03/05 11:18:20;;;;;;;12.90;0.65;;;8.30;99.90;;;;;;5124076;27;20055;-84
2023/03/05 11:20:46;;;;;;;3.53;0.50;;;8.30;99.90;;;;;;5105476;28;20506;-82
2023/03/05 11:23:17;;;;;;;5.80;0.52;;;8.50;99.90;;;;;;5073486;28;20126;-81
2023/03/05 11:25:53;;;;;;;4.20;0.40;;;9.30;99.90;;;;;;5088865;28;20058;-82
2023/03/05 11:28:29;;;;;;;11.10;0.52;;;8.70;99.90;;;;;;5089537;28;20032;-83
2023/03/05 11:31:00;;;;;;;4.60;0.75;;;8.70;99.90;;;;;;5089610;28;20039;-83
2023/03/05 11:33:25;;;;;;;7.15;1.00;;;8.50;99.90;;;;;;5088619;28;20098;-82
2023/03/05 11:36:08;;;;;;;3.83;0.28;;;8.30;99.90;;;;;;5089656;28;20500;-80
2023/03/05 11:38:50;;;;;;;4.90;0.52;;;8.10;99.90;;;;;;5106166;28;20044;-81
2023/03/05 11:41:23;;;;;;;2.17;0.30;;;8.00;99.90;;;;;;5105304;28;20191;-81
2023/03/05 11:43:52;;;;;;;5.47;1.08;;;7.90;99.90;;;;;;5089329;28;20134;-81
2023/03/05 11:46:18;;;;;;;5.00;0.50;;;7.90;99.90;;;;;;5105148;28;20436;-82
2023/03/05 11:48:45;;;;;;;4.93;0.40;;;8.00;99.90;;;;;;5106604;28;20052;-81
2023/03/05 11:51:27;;;;;;;3.67;0.35;;;8.70;99.90;;;;;;5105639;28;20047;-81
2023/03/05 11:53:57;;;;;;;4.50;0.30;;;8.10;99.90;;;;;;5088900;28;20586;-81
2023/03/05 11:56:30;;;;;;;7.72;0.88;;;8.00;99.90;;;;;;5088950;28;20044;-82
2023/03/05 11:59:01;;;;;;;4.60;0.47;;;7.90;99.90;;;;;;5088322;28;20051;-83
2023/03/05 12:01:31;;;;;;;6.82;0.50;;;7.80;99.90;;;;;;5089746;28;20055;-84
2023/03/05 12:03:58;;;;;;;4.47;0.40;;;7.30;99.90;;;;;;5088807;28;20118;-84
2023/03/05 12:06:41;;;;;;;3.40;0.50;;;8.50;99.90;;;;;;5106341;28;20130;-84
2023/03/05 12:09:20;;;;;;;10.03;1.57;;;7.90;99.90;;;;;;5089182;28;20043;-83
2023/03/05 12:11:49;;;;;;;4.82;0.57;;;8.10;99.90;;;;;;5103933;28;20047;-84
2023/03/05 12:14:52;;;;;;;2.25;0.40;;;8.30;99.90;;;;;;5106512;28;20139;-82
2023/03/05 12:17:44;;;;;;;2.42;0.70;;;8.60;99.90;;;;;;5090388;27;20056;-85
2023/03/05 12:20:42;;;;;;;4.28;0.50;;;9.00;99.90;;;;;;5073103;28;20051;-83
2023/03/05 12:23:17;;;;;;;3.70;0.65;;;8.90;99.90;;;;;;5089340;28;20709;-83
2023/03/05 12:25:50;;;;;;;2.63;0.90;;;8.90;99.90;;;;;;5104802;28;20044;-83
2023/03/05 12:28:42;;;;;;;5.10;0.50;;;8.40;99.90;;;;;;5104943;28;20086;-84
2023/03/05 12:31:07;;;;;;;6.32;0.88;;;8.30;99.90;;;;;;5112150;27;20159;-82
2023/03/05 12:33:34;;;;;;;5.63;0.40;;;8.60;99.90;;;;;;5104148;28;20098;-84
2023/03/05 12:36:21;;;;;;;4.35;0.68;;;7.90;99.90;;;;;;5091892;28;20267;-85
2023/03/05 12:38:56;;;;;;;5.72;0.68;;;8.00;99.90;;;;;;5104107;28;20055;-82
2023/03/05 12:41:22;;;;;;;3.80;0.45;;;8.80;99.90;;;;;;5104113;28;20040;-81
2023/03/05 12:44:06;;;;;;;2.22;0.30;;;8.40;99.90;;;;;;5087930;28;20050;-82
2023/03/05 12:46:32;;;;;;;6.55;0.65;;;8.40;99.90;;;;;;5103975;28;20077;-82
2023/03/05 12:48:58;;;;;;;4.57;0.38;;;8.50;99.90;;;;;;5088507;28;20398;-82
2023/03/05 12:51:39;;;;;;;3.08;0.47;;;8.40;99.90;;;;;;5104399;28;20045;-81
2023/03/05 12:54:30;;;;;;;5.10;0.57;;;8.40;99.90;;;;;;5105120;28;20067;-83
2023/03/05 12:57:28;;;;;;;2.22;0.52;;;8.50;99.90;;;;;;5105462;28;20086;-81
2023/03/05 13:00:12;;;;;;;5.20;0.57;;;8.70;99.90;;;;;;5089326;28;20083;-81
2023/03/05 13:02:41;;;;;;;5.72;0.77;;;8.90;99.90;;;;;;5109137;28;20040;-81
2023/03/05 13:05:29;;;;;;;6.43;0.60;;;9.10;99.90;;;;;;5092442;28;20043;-80
2023/03/05 13:08:19;;;;;;;3.30;0.65;;;9.30;99.90;;;;;;5107365;28;20083;-80
2023/03/05 13:10:55;;;;;;;1.20;0.30;;;8.80;99.90;;;;;;5109417;28;20147;-80